Time;durP1;ratioP1;P1;durP2;ratioP2;P2;SDS_P1;SDS_P2;PMS_P1;PMS_P2;Temp;Humidity;BMP_temperature;BMP_pressure;BME280_temperature;BME280_humidity;BME280_pressure;Samples;Min_cycle;Max_cycle;Signal;HPM_P1;HPM_P2
2022/01/15 00:00:37;;;;;;;3.47;2.30;;;;;;;22.21;37.81;103330.28;5035743;28;20045;-67
2022/01/15 00:03:07;;;;;;;3.47;2.10;;;;;;;22.01;37.99;103303.66;5042097;28;20547;-67
2022/01/15 00:05:34;;;;;;;3.70;2.00;;;;;;;22.09;38.28;103320.78;5032855;28;20034;-67
2022/01/15 00:08:02;;;;;;;3.20;2.13;;;;;;;22.08;38.02;103311.09;5039790;28;21633;-67
2022/01/15 00:10:29;;;;;;;2.25;1.63;;;;;;;22.01;38.31;103303.66;5034916;28;20164;-67
2022/01/15 00:12:56;;;;;;;2.33;2.00;;;;;;;22.01;38.12;103310.78;5035787;28;20399;-67
2022/01/15 00:15:35;;;;;;;4.00;2.00;;;;;;;21.85;38.48;103290.06;5041145;28;20862;-67
2022/01/15 00:18:05;;;;;;;3.50;1.90;;;;;;;21.90;38.40;103303.78;5034070;28;20052;-67
2022/01/15 00:20:32;;;;;;;2.85;2.08;;;;;;;21.91;38.57;103308.13;5041066;28;20581;-67
2022/01/15 00:22:59;;;;;;;3.03;1.98;;;;;;;21.90;38.35;103294.97;5035396;28;20554;-67
2022/01/15 00:25:26;;;;;;;3.15;2.03;;;;;;;21.88;38.48;103281.84;5041367;28;20510;-67
2022/01/15 00:27:52;;;;;;;2.70;1.80;;;;;;;21.87;38.45;103290.75;5037227;28;20057;-67
2022/01/15 00:30:19;;;;;;;3.72;1.90;;;;;;;21.79;38.53;103287.97;5037054;28;20041;-67
2022/01/15 00:32:45;;;;;;;2.03;1.63;;;;;;;21.77;38.48;103297.88;5042748;28;20051;-67
2022/01/15 00:35:13;;;;;;;2.30;1.90;;;;;;;21.75;38.40;103294.50;5035722;28;20037;-67
2022/01/15 00:37:39;;;;;;;3.22;1.90;;;;;;;21.75;38.40;103293.66;5037016;28;20490;-67
2022/01/15 00:40:07;;;;;;;2.45;2.00;;;;;;;21.70;38.57;103278.97;5035381;28;20545;-67
2022/01/15 00:42:35;;;;;;;2.03;1.80;;;;;;;21.73;38.56;103277.06;5040195;28;20386;-67
2022/01/15 00:45:02;;;;;;;1.48;1.38;;;;;;;21.66;38.69;103282.88;5032260;28;20535;-67
2022/01/15 00:47:31;;;;;;;2.03;1.83;;;;;;;21.65;38.41;103281.19;5034492;28;20053;-68
2022/01/15 00:49:58;;;;;;;2.58;1.70;;;;;;;21.65;38.69;103289.16;5043317;28;20043;-67
2022/01/15 00:52:24;;;;;;;2.25;1.77;;;;;;;21.62;38.53;103281.47;5033656;28;20037;-67
2022/01/15 00:54:50;;;;;;;2.20;1.65;;;;;;;21.47;38.56;103250.97;5037754;28;20044;-67
2022/01/15 00:57:15;;;;;;;1.90;1.40;;;;;;;21.58;38.39;103268.59;5032187;28;20103;-67
2022/01/15 00:59:41;;;;;;;1.83;1.73;;;;;;;21.56;38.67;103275.84;5040037;28;20235;-67
2022/01/15 01:02:07;;;;;;;1.90;1.40;;;;;;;21.53;38.46;103276.09;5038690;28;20513;-67
2022/01/15 01:04:32;;;;;;;3.50;1.80;;;;;;;21.53;38.66;103273.44;5033310;28;20042;-67
2022/01/15 01:06:58;;;;;;;1.73;1.50;;;;;;;21.53;38.49;103268.97;5036822;28;20033;-67
2022/01/15 01:09:29;;;;;;;2.13;1.67;;;;;;;21.50;38.36;103260.47;5034539;28;20090;-67
2022/01/15 01:11:58;;;;;;;1.70;1.40;;;;;;;21.44;38.56;103256.53;5036796;28;20037;-67
2022/01/15 01:20:05;;;;;;;2.13;1.80;;;;;;;21.41;38.60;103260.28;5034863;28;20033;-67
2022/01/15 01:25:15;;;;;;;2.35;1.67;;;;;;;21.37;38.58;103258.88;5036323;28;20126;-67
2022/01/15 01:27:48;;;;;;;1.88;1.52;;;;;;;21.33;38.59;103260.09;5034240;28;20037;-67
2022/01/15 01:30:29;;;;;;;3.13;1.75;;;;;;;21.34;38.74;103253.81;5037924;28;20841;-67
2022/01/15 01:33:14;;;;;;;2.85;1.67;;;;;;;21.33;38.78;103251.31;5036290;28;20120;-67
2022/01/15 01:35:44;;;;;;;2.88;1.83;;;;;;;21.29;38.70;103255.19;5033531;28;21133;-67
2022/01/15 01:38:27;;;;;;;2.65;1.60;;;;;;;21.26;38.82;103258.94;5032215;28;20089;-67
2022/01/15 01:40:53;;;;;;;2.10;1.52;;;;;;;21.25;38.78;103261.72;5049864;28;20879;-67
2022/01/15 01:45:53;;;;;;;1.95;1.52;;;;;;;21.24;38.58;103258.25;5039766;28;20043;-67
2022/01/15 01:48:19;;;;;;;1.40;1.20;;;;;;;21.21;38.79;103260.28;5033378;28;20040;-67
2022/01/15 01:50:44;;;;;;;2.38;1.90;;;;;;;21.20;38.73;103250.66;5034485;28;20036;-67
2022/01/15 01:53:10;;;;;;;2.35;1.40;;;;;;;21.16;38.60;103244.75;5035481;28;20497;-67
2022/01/15 01:55:37;;;;;;;1.75;1.45;;;;;;;21.16;38.82;103251.88;5035128;28;20049;-67
2022/01/15 01:58:03;;;;;;;2.17;1.60;;;;;;;21.12;38.79;103244.19;5042106;28;20039;-67
2022/01/15 02:00:30;;;;;;;1.55;1.45;;;;;;;21.15;38.76;103239.59;5041482;28;20037;-67
2022/01/15 02:02:57;;;;;;;2.03;1.50;;;;;;;21.14;38.71;103233.44;5038535;28;20140;-67
2022/01/15 02:05:23;;;;;;;2.13;1.60;;;;;;;21.12;38.78;103230.94;5039378;28;20039;-67
2022/01/15 02:07:49;;;;;;;1.50;1.40;;;;;;;21.10;38.65;103230.22;5034784;28;20051;-67
2022/01/15 02:10:17;;;;;;;2.58;1.60;;;;;;;21.13;38.60;103231.78;5040591;28;20508;-68
2022/01/15 02:12:44;;;;;;;2.97;1.67;;;;;;;21.09;38.69;103240.97;5032353;28;20037;-67
2022/01/15 02:15:12;;;;;;;1.55;1.45;;;;;;;21.08;38.92;103237.47;5035548;28;20033;-67
2022/01/15 02:17:39;;;;;;;1.42;1.33;;;;;;;21.05;38.71;103232.44;5037765;28;20136;-67
2022/01/15 02:20:21;;;;;;;3.08;1.83;;;;;;;21.06;38.87;103235.94;5035600;28;20045;-67
2022/01/15 02:25:42;;;;;;;2.42;1.67;;;;;;;21.01;38.79;103228.38;5035427;28;20045;-67
2022/01/15 02:28:08;;;;;;;1.95;1.55;;;;;;;20.98;38.83;103228.59;5033558;28;20047;-67
2022/01/15 02:30:33;;;;;;;1.55;1.40;;;;;;;20.98;38.87;103219.81;5032975;28;20041;-67
2022/01/15 02:32:59;;;;;;;1.88;1.67;;;;;;;20.98;38.76;103212.72;5037697;28;20048;-67
2022/01/15 02:35:25;;;;;;;1.75;1.50;;;;;;;20.97;38.87;103211.03;5030114;28;20044;-67
2022/01/15 02:37:50;;;;;;;1.48;1.38;;;;;;;20.96;38.78;103217.31;5040256;28;20040;-67
2022/01/15 02:40:16;;;;;;;1.40;1.30;;;;;;;20.94;38.50;103205.16;5037029;28;20122;-67
2022/01/15 02:42:41;;;;;;;1.90;1.70;;;;;;;20.92;38.81;103194.69;5039086;28;20048;-67
2022/01/15 02:45:08;;;;;;;1.95;1.33;;;;;;;20.94;38.97;103199.88;5042817;28;20024;-67
2022/01/15 02:50:21;;;;;;;1.52;1.30;;;;;;;20.89;38.97;103205.56;5044342;28;20055;-67
2022/01/15 02:52:47;;;;;;;2.22;1.60;;;;;;;20.86;38.92;103194.38;5036362;28;20050;-67
2022/01/15 02:55:13;;;;;;;1.77;1.38;;;;;;;20.88;38.75;103192.44;5038988;28;20084;-67
2022/01/15 02:57:38;;;;;;;1.98;1.60;;;;;;;20.89;38.83;103186.19;5042288;28;20598;-67
2022/01/15 03:00:05;;;;;;;1.58;1.30;;;;;;;20.87;38.89;103188.97;5039527;28;20818;-67
2022/01/15 03:02:33;;;;;;;1.70;1.40;;;;;;;20.81;38.84;103182.34;5041075;28;20544;-67
2022/01/15 03:04:58;;;;;;;1.20;1.10;;;;;;;20.84;38.84;103185.75;5039147;28;20129;-67
2022/01/15 03:07:24;;;;;;;1.67;1.58;;;;;;;20.81;38.77;103179.72;5043890;28;20040;-67
2022/01/15 03:09:49;;;;;;;1.38;1.27;;;;;;;20.82;38.80;103175.25;5038143;28;20036;-67
2022/01/15 03:12:15;;;;;;;1.35;1.15;;;;;;;20.79;38.92;103173.69;5041327;28;20040;-67
2022/01/15 03:14:42;;;;;;;1.58;1.30;;;;;;;20.80;38.95;103179.84;5039506;28;20492;-67
2022/01/15 03:17:07;;;;;;;1.40;1.30;;;;;;;20.77;38.96;103173.00;5036803;28;20041;-67
2022/01/15 03:19:33;;;;;;;1.65;1.38;;;;;;;20.56;38.85;103132.44;5041393;28;20739;-67
2022/01/15 03:21:58;;;;;;;1.48;1.38;;;;;;;20.76;38.83;103170.47;5037363;28;20055;-67
2022/01/15 03:24:24;;;;;;;2.17;1.40;;;;;;;20.70;39.06;103157.78;5043131;28;20044;-67
2022/01/15 03:26:49;;;;;;;1.45;1.35;;;;;;;20.71;38.92;103170.03;5036102;28;20047;-67
2022/01/15 03:29:15;;;;;;;1.85;1.33;;;;;;;20.69;38.88;103164.03;5037546;28;20040;-67
2022/01/15 03:31:44;;;;;;;1.40;1.30;;;;;;;20.70;38.93;103168.38;5044427;28;20056;-67
2022/01/15 03:34:10;;;;;;;1.42;1.33;;;;;;;20.71;38.75;103170.88;5037664;28;20071;-67
2022/01/15 03:36:35;;;;;;;1.60;1.30;;;;;;;20.70;39.15;103163.06;5042746;28;20057;-67
2022/01/15 03:39:01;;;;;;;1.52;1.30;;;;;;;20.69;38.89;103164.88;5034420;28;20044;-67
2022/01/15 03:41:27;;;;;;;1.92;1.33;;;;;;;20.69;38.81;103166.69;5040376;28;20470;-67
2022/01/15 03:43:52;;;;;;;1.48;1.15;;;;;;;20.66;38.91;103164.31;5040502;28;20037;-67
2022/01/15 03:46:19;;;;;;;2.17;1.45;;;;;;;20.62;39.03;103166.34;5034654;28;20051;-67
2022/01/15 03:48:47;;;;;;;1.50;1.40;;;;;;;20.65;38.82;103165.28;5040012;28;20048;-67
2022/01/15 03:51:13;;;;;;;1.80;1.58;;;;;;;20.59;38.93;103158.66;5038930;28;20044;-67
2022/01/15 03:53:39;;;;;;;1.35;1.13;;;;;;;20.62;38.93;103170.78;5042873;28;20033;-67
2022/01/15 03:56:04;;;;;;;1.20;1.10;;;;;;;20.58;38.98;103158.78;5037152;28;20549;-67
2022/01/15 03:58:30;;;;;;;1.80;1.40;;;;;;;20.62;38.87;103163.69;5040445;28;20052;-67
2022/01/15 04:00:55;;;;;;;1.00;0.90;;;;;;;20.62;38.95;103152.25;5041369;28;20033;-67
2022/01/15 04:03:21;;;;;;;1.50;1.17;;;;;;;20.59;38.98;103153.38;5038447;28;20052;-67
2022/01/15 04:05:47;;;;;;;1.30;1.20;;;;;;;20.57;38.99;103146.53;5038048;28;20036;-67
2022/01/15 04:08:12;;;;;;;1.30;1.20;;;;;;;20.58;38.99;103145.56;5035753;28;20174;-67
2022/01/15 04:10:37;;;;;;;1.30;1.20;;;;;;;20.56;39.38;103145.69;5041018;28;20036;-68
2022/01/15 04:13:03;;;;;;;1.13;1.02;;;;;;;20.57;38.91;103144.72;5033299;28;20060;-67
2022/01/15 04:15:29;;;;;;;1.38;1.20;;;;;;;20.52;38.94;103139.81;5037610;28;20041;-67
2022/01/15 04:17:54;;;;;;;1.00;0.95;;;;;;;20.53;38.98;103132.72;5041082;28;20045;-67
2022/01/15 04:20:22;;;;;;;1.02;1.00;;;;;;;20.47;39.01;103122.66;5036907;28;20090;-67
2022/01/15 04:22:50;;;;;;;1.00;0.95;;;;;;;20.49;39.06;103112.78;5043743;28;20040;-67
2022/01/15 04:25:17;;;;;;;1.67;1.08;;;;;;;20.48;39.00;103124.31;5032779;28;20498;-67
2022/01/15 04:27:44;;;;;;;2.55;1.27;;;;;;;20.48;38.99;103124.31;5039182;28;20429;-67
2022/01/15 04:30:12;;;;;;;1.55;1.27;;;;;;;20.48;38.91;103124.31;5033712;28;20467;-67
2022/01/15 04:32:38;;;;;;;1.20;1.10;;;;;;;20.48;39.05;103121.69;5033478;28;20760;-66
2022/01/15 04:35:04;;;;;;;1.50;1.17;;;;;;;20.48;38.93;103119.03;5031866;28;20041;-67
2022/01/15 04:37:40;;;;;;;1.38;1.23;;;;;;;20.45;39.04;103122.75;5032853;28;20032;-67
2022/01/15 04:40:08;;;;;;;0.90;0.90;;;;;;;20.43;38.99;103121.22;5038077;28;20139;-67
2022/01/15 04:42:33;;;;;;;1.15;1.05;;;;;;;20.43;39.07;103123.84;5034446;28;20090;-67
2022/01/15 04:45:01;;;;;;;0.90;0.80;;;;;;;20.42;39.09;103125.66;5039743;28;20032;-67
2022/01/15 04:47:26;;;;;;;1.10;1.00;;;;;;;20.44;39.00;103117.59;5036737;28;20041;-67
2022/01/15 04:49:54;;;;;;;1.58;1.13;;;;;;;20.42;39.08;103111.59;5037650;28;20037;-67
2022/01/15 04:52:23;;;;;;;0.98;0.88;;;;;;;20.40;39.04;103100.25;5041563;28;20120;-67
2022/01/15 04:54:49;;;;;;;1.23;0.98;;;;;;;20.38;39.10;103110.16;5035841;28;20530;-67
2022/01/15 04:57:14;;;;;;;1.05;1.05;;;;;;;20.40;39.04;103113.50;5050871;28;20052;-67
2022/01/15 04:59:40;;;;;;;1.05;0.98;;;;;;;20.37;39.00;103113.75;5031777;28;20042;-67
2022/01/15 05:02:05;;;;;;;1.08;1.00;;;;;;;20.35;39.12;103111.25;5043545;28;20497;-67
2022/01/15 05:04:31;;;;;;;1.48;0.95;;;;;;;20.35;39.08;103105.13;5040735;28;20029;-67
2022/01/15 05:06:56;;;;;;;1.10;1.00;;;;;;;20.36;38.99;103114.72;5037564;28;20040;-67
2022/01/15 05:09:22;;;;;;;0.63;0.60;;;;;;;20.35;38.99;103113.06;5038811;28;20045;-67
2022/01/15 05:12:11;;;;;;;0.95;0.80;;;;;;;20.32;39.05;103106.22;5035102;28;20040;-67
2022/01/15 05:14:33;;;;;;;2.17;0.93;;;;;;;20.30;39.13;103105.50;5038035;28;20076;-67
2022/01/15 05:16:59;;;;;;;1.17;1.08;;;;;;;20.31;39.10;103109.81;5034757;28;20411;-67
2022/01/15 05:19:24;;;;;;;1.38;1.20;;;;;;;20.31;39.26;103101.06;5040329;28;20048;-67
2022/01/15 05:21:50;;;;;;;1.45;1.00;;;;;;;20.29;39.09;103093.25;5034589;28;20033;-67
2022/01/15 05:24:15;;;;;;;1.50;1.10;;;;;;;20.25;39.42;103083.03;5037824;28;20049;-67
2022/01/15 05:26:41;;;;;;;1.27;0.98;;;;;;;20.26;39.19;103097.94;5043025;28;20548;-67
2022/01/15 05:29:06;;;;;;;0.80;0.80;;;;;;;20.31;39.09;103095.75;5034018;28;20592;-67
2022/01/15 05:31:32;;;;;;;0.65;0.65;;;;;;;20.31;39.11;103098.41;5035046;28;20045;-67
2022/01/15 05:33:57;;;;;;;1.23;1.10;;;;;;;20.34;38.50;103091.03;5034342;28;20044;-67
2022/01/15 05:36:23;;;;;;;1.10;0.90;;;;;;;20.44;38.85;103085.84;5035856;28;20441;-67
2022/01/15 05:38:48;;;;;;;1.10;0.82;;;;;;;20.61;38.63;103089.69;5039317;28;20041;-67
2022/01/15 05:41:14;;;;;;;0.85;0.75;;;;;;;20.84;38.25;103090.41;5035531;28;20087;-67
2022/01/15 05:43:40;;;;;;;1.40;1.00;;;;;;;21.00;37.83;103088.91;5040944;28;20036;-67
2022/01/15 05:46:05;;;;;;;0.85;0.75;;;;;;;21.23;37.73;103094.88;5035619;28;20044;-67
2022/01/15 05:48:31;;;;;;;1.00;0.90;;;;;;;21.43;37.68;103087.88;5038039;28;20070;-67
2022/01/15 05:50:56;;;;;;;1.10;1.00;;;;;;;21.74;37.31;103087.78;5035765;28;20052;-67
2022/01/15 05:53:22;;;;;;;0.80;0.80;;;;;;;21.96;36.94;103088.34;5039274;28;20078;-67
2022/01/15 05:55:48;;;;;;;1.20;1.10;;;;;;;22.03;36.90;103089.47;5037328;28;20550;-67
2022/01/15 05:58:13;;;;;;;1.38;1.00;;;;;;;22.02;36.70;103068.38;5034356;28;20038;-67
2022/01/15 06:00:38;;;;;;;0.88;0.85;;;;;;;22.09;36.53;103085.47;5039646;28;20425;-67
2022/01/15 06:03:04;;;;;;;1.00;1.00;;;;;;;22.12;36.52;103084.34;5032597;28;20041;-67
2022/01/15 06:05:30;;;;;;;1.25;1.15;;;;;;;22.06;36.77;103071.63;5040442;28;20044;-67
2022/01/15 06:07:55;;;;;;;0.77;0.77;;;;;;;22.09;36.82;103080.16;5041264;28;20046;-67
2022/01/15 06:10:21;;;;;;;0.50;0.50;;;;;;;22.06;36.82;103080.41;5037455;28;20048;-67
2022/01/15 06:12:46;;;;;;;1.23;0.70;;;;;;;22.09;36.69;103074.00;5042049;28;20512;-67
2022/01/15 06:15:16;;;;;;;0.85;0.77;;;;;;;22.07;37.06;103076.78;5037052;28;20044;-67
2022/01/15 06:17:43;;;;;;;1.15;0.85;;;;;;;22.13;36.67;103078.88;5040217;28;20041;-67
2022/01/15 06:20:11;;;;;;;1.80;0.98;;;;;;;21.99;36.68;103056.22;5038700;28;20045;-67
2022/01/15 06:22:37;;;;;;;0.75;0.75;;;;;;;22.17;36.53;103082.94;5041897;28;20040;-67
2022/01/15 06:25:03;;;;;;;0.98;0.70;;;;;;;22.17;36.69;103082.94;5037493;28;20139;-67
2022/01/15 06:27:30;;;;;;;0.73;0.68;;;;;;;22.12;36.74;103063.94;5038444;28;20037;-67
2022/01/15 06:29:57;;;;;;;1.00;0.77;;;;;;;22.17;36.62;103074.97;5041080;28;20094;-67
2022/01/15 06:32:25;;;;;;;1.00;0.88;;;;;;;22.07;37.00;103068.81;5038249;28;20068;-67
2022/01/15 06:34:51;;;;;;;0.75;0.60;;;;;;;22.08;37.04;103065.19;5040231;28;20033;-67
2022/01/15 06:37:16;;;;;;;0.80;0.80;;;;;;;22.07;36.96;103071.47;5038619;28;20047;-67
2022/01/15 06:39:42;;;;;;;0.70;0.70;;;;;;;22.02;36.93;103055.94;5042664;28;20067;-67
2022/01/15 06:42:07;;;;;;;0.52;0.52;;;;;;;22.03;37.24;103067.41;5042791;28;20045;-67
2022/01/15 06:44:33;;;;;;;0.80;0.77;;;;;;;21.99;37.16;103072.16;5036030;28;20030;-67
2022/01/15 06:46:58;;;;;;;0.95;0.77;;;;;;;22.02;36.96;103058.59;5042946;28;20509;-68
2022/01/15 06:49:24;;;;;;;0.70;0.60;;;;;;;22.01;37.20;103046.31;5037331;28;20041;-67
2022/01/15 06:51:49;;;;;;;0.75;0.73;;;;;;;22.04;36.99;103055.81;5041251;28;20040;-67
2022/01/15 06:54:15;;;;;;;0.90;0.70;;;;;;;22.06;37.21;103053.88;5039664;28;20040;-67
2022/01/15 06:56:40;;;;;;;1.02;0.77;;;;;;;22.07;36.92;103055.56;5037350;28;20095;-68
2022/01/15 06:59:06;;;;;;;0.70;0.70;;;;;;;22.07;37.01;103052.06;5039134;28;20479;-67
2022/01/15 07:01:31;;;;;;;0.77;0.77;;;;;;;22.15;36.92;103046.91;5033192;28;20039;-67
2022/01/15 07:03:57;;;;;;;0.60;0.60;;;;;;;22.15;37.14;103049.56;5037317;28;20056;-67
2022/01/15 07:06:22;;;;;;;1.27;0.85;;;;;;;22.16;36.99;103048.56;5049978;28;20041;-68
2022/01/15 07:08:48;;;;;;;0.65;0.65;;;;;;;22.23;36.60;103053.16;5039469;28;20532;-67
2022/01/15 07:11:14;;;;;;;0.82;0.50;;;;;;;22.24;36.95;103044.22;5037510;28;20434;-67
2022/01/15 07:13:39;;;;;;;0.65;0.65;;;;;;;22.16;37.01;103038.78;5037257;28;20037;-67
2022/01/15 07:16:04;;;;;;;0.63;0.63;;;;;;;22.13;36.94;103036.44;5039336;28;20040;-67
2022/01/15 07:18:30;;;;;;;0.52;0.52;;;;;;;22.07;37.00;103044.94;5035025;28;20037;-67
2022/01/15 07:20:56;;;;;;;0.93;0.70;;;;;;;22.01;37.36;103048.13;5040619;28;20045;-67
2022/01/15 07:23:21;;;;;;;0.60;0.60;;;;;;;21.97;37.35;103042.28;5038321;28;20037;-67
2022/01/15 07:25:47;;;;;;;0.90;0.70;;;;;;;21.94;37.22;103033.75;5040058;28;20037;-67
2022/01/15 07:28:12;;;;;;;0.80;0.68;;;;;;;21.95;37.26;103036.28;5032170;28;20541;-67
2022/01/15 07:30:38;;;;;;;0.70;0.65;;;;;;;21.99;37.32;103029.69;5035082;28;20708;-68
2022/01/15 07:33:04;;;;;;;1.02;0.65;;;;;;;22.00;37.38;103039.34;5040810;28;20041;-67
2022/01/15 07:35:30;;;;;;;1.27;0.75;;;;;;;22.11;37.09;103030.44;5032791;28;20040;-68
2022/01/15 07:37:56;;;;;;;0.88;0.47;;;;;;;22.14;36.87;103024.84;5040517;28;20428;-68
2022/01/15 07:40:22;;;;;;;0.85;0.60;;;;;;;22.20;36.70;103026.06;5044872;28;20175;-68
2022/01/15 07:42:48;;;;;;;0.63;0.60;;;;;;;22.31;36.83;103033.88;5036667;28;20613;-67
2022/01/15 07:45:16;;;;;;;0.95;0.40;;;;;;;22.35;36.63;103027.31;5044752;28;20096;-67
2022/01/15 07:47:43;;;;;;;0.70;0.70;;;;;;;22.39;36.33;103019.88;5037004;28;20047;-67
2022/01/15 07:50:15;;;;;;;0.80;0.70;;;;;;;22.46;36.17;103019.19;5038849;28;20033;-67
2022/01/15 07:52:40;;;;;;;0.65;0.57;;;;;;;22.50;36.56;103027.69;5037435;28;20047;-67
2022/01/15 07:55:07;;;;;;;0.60;0.60;;;;;;;22.50;36.11;103033.00;5043240;28;20025;-67
2022/01/15 07:57:33;;;;;;;0.60;0.60;;;;;;;22.33;36.53;103001.88;5040323;28;20049;-67
2022/01/15 07:59:58;;;;;;;0.45;0.43;;;;;;;22.41;36.52;103023.22;5037585;28;20045;-67
2022/01/15 08:02:25;;;;;;;0.73;0.63;;;;;;;22.32;36.64;103022.28;5037805;28;20106;-67
2022/01/15 08:04:50;;;;;;;0.95;0.70;;;;;;;22.25;37.03;103015.84;5035239;28;20498;-67
2022/01/15 08:07:18;;;;;;;0.60;0.60;;;;;;;22.18;36.80;103017.41;5043090;28;20040;-67
2022/01/15 08:09:44;;;;;;;0.47;0.47;;;;;;;22.13;37.08;103025.81;5037110;28;20036;-68
2022/01/15 08:12:11;;;;;;;0.85;0.60;;;;;;;22.09;36.80;103026.25;5040325;28;20147;-67
2022/01/15 08:14:37;;;;;;;0.93;0.50;;;;;;;22.08;37.01;103013.94;5041426;28;20534;-67
2022/01/15 08:17:02;;;;;;;1.75;0.63;;;;;;;22.06;37.26;103019.38;5036354;28;20089;-67
2022/01/15 08:19:28;;;;;;;0.73;0.60;;;;;;;22.03;37.36;103009.03;5041189;28;20110;-67
2022/01/15 08:21:53;;;;;;;0.70;0.68;;;;;;;22.02;37.02;103012.66;5037059;28;20044;-68
2022/01/15 08:24:19;;;;;;;0.50;0.50;;;;;;;21.98;37.46;103017.41;5038690;28;20173;-67
2022/01/15 08:26:45;;;;;;;0.60;0.60;;;;;;;21.94;37.44;103026.66;5036175;28;20032;-67
2022/01/15 08:29:10;;;;;;;0.80;0.73;;;;;;;21.91;37.57;103020.78;5036059;28;20033;-67
2022/01/15 08:31:36;;;;;;;0.57;0.50;;;;;;;21.87;37.46;103024.69;5039427;28;20098;-67
2022/01/15 08:34:01;;;;;;;0.77;0.60;;;;;;;21.84;37.17;103017.84;5035036;28;20049;-67
2022/01/15 08:36:27;;;;;;;0.35;0.30;;;;;;;21.86;37.33;103033.63;5030343;28;20030;-68
2022/01/15 08:38:53;;;;;;;0.73;0.60;;;;;;;21.89;37.28;103031.50;5033791;28;20052;-67
2022/01/15 08:41:18;;;;;;;0.47;0.47;;;;;;;21.95;37.25;103030.97;5038569;28;20569;-67
2022/01/15 08:43:44;;;;;;;0.43;0.43;;;;;;;22.05;37.19;103028.31;5033573;28;20103;-68
2022/01/15 08:46:11;;;;;;;0.45;0.45;;;;;;;22.15;36.73;103025.66;5038438;28;20284;-67
2022/01/15 08:48:37;;;;;;;0.50;0.50;;;;;;;22.27;36.49;103021.88;5031217;28;20048;-67
2022/01/15 08:51:03;;;;;;;0.55;0.55;;;;;;;22.40;36.43;103016.25;5038372;28;20045;-67
2022/01/15 08:53:28;;;;;;;0.68;0.40;;;;;;;22.43;36.29;103027.41;5033181;28;20040;-68
2022/01/15 08:55:55;;;;;;;0.40;0.30;;;;;;;22.54;36.44;103023.75;5035449;28;20041;-68
2022/01/15 08:58:20;;;;;;;0.70;0.70;;;;;;;22.58;35.90;103028.63;5049600;28;20052;-67
2022/01/15 09:00:47;;;;;;;0.50;0.50;;;;;;;22.60;36.27;103020.50;5031796;28;20037;-68
2022/01/15 09:03:13;;;;;;;0.50;0.50;;;;;;;22.56;36.53;103014.66;5037950;28;20130;-67
2022/01/15 09:05:38;;;;;;;1.25;0.40;;;;;;;22.58;36.18;103019.81;5033952;28;20029;-67
2022/01/15 09:08:05;;;;;;;0.93;0.65;;;;;;;22.51;36.61;103014.25;5033661;28;20037;-67
2022/01/15 09:10:31;;;;;;;0.52;0.30;;;;;;;22.44;36.64;103013.19;5033439;28;20032;-67
2022/01/15 09:12:57;;;;;;;0.68;0.60;;;;;;;22.40;36.64;103008.28;5032021;28;20033;-67
2022/01/15 09:15:24;;;;;;;0.65;0.43;;;;;;;22.34;36.75;103011.53;5031072;28;20028;-67
2022/01/15 09:17:50;;;;;;;0.60;0.60;;;;;;;22.25;37.18;103014.03;5032344;28;20491;-68
2022/01/15 09:20:16;;;;;;;0.52;0.52;;;;;;;22.22;36.82;103010.84;5031814;28;20562;-68
2022/01/15 09:22:42;;;;;;;1.63;0.75;;;;;;;22.16;37.20;102995.50;5035542;28;20489;-67
2022/01/15 09:25:08;;;;;;;0.82;0.73;;;;;;;22.12;36.94;102997.59;5031522;28;20037;-67
2022/01/15 09:30:17;;;;;;;2.53;1.20;;;;;;;22.12;37.29;102997.59;5029363;28;20049;-67
2022/01/15 09:32:46;;;;;;;1.70;1.38;;;;;;;22.15;36.91;102993.84;5027266;28;20037;-68
2022/01/15 09:35:13;;;;;;;2.10;1.80;;;;;;;22.15;37.17;102993.84;5039276;28;20021;-67
2022/01/15 09:37:39;;;;;;;1.58;1.45;;;;;;;22.19;36.86;102987.25;5032641;28;20116;-67
2022/01/15 09:40:07;;;;;;;2.50;1.83;;;;;;;22.21;37.06;102985.28;5034969;28;20067;-68
2022/01/15 09:42:34;;;;;;;2.22;1.70;;;;;;;22.21;37.22;102987.94;5037008;28;20046;-67
2022/01/15 09:45:02;;;;;;;2.80;2.00;;;;;;;22.18;37.29;102982.94;5034082;28;20029;-68
2022/01/15 09:47:29;;;;;;;1.95;1.35;;;;;;;22.15;37.14;102985.88;5029147;28;20040;-68
2022/01/15 09:49:57;;;;;;;3.10;2.00;;;;;;;22.10;36.95;102990.78;5034879;28;20107;-68
2022/01/15 09:52:23;;;;;;;2.58;1.95;;;;;;;22.06;37.40;102984.91;5039670;28;20775;-68
2022/01/15 09:54:50;;;;;;;2.67;1.90;;;;;;;22.02;37.59;102989.63;5030266;28;20487;-68
2022/01/15 09:57:17;;;;;;;3.47;2.22;;;;;;;21.97;37.58;102988.38;5034952;28;20201;-68
2022/01/15 09:59:43;;;;;;;2.55;1.95;;;;;;;21.96;37.26;102978.75;5033420;28;20140;-68
2022/01/15 10:02:09;;;;;;;2.63;1.90;;;;;;;21.92;37.38;102978.22;5033877;28;20056;-68
2022/01/15 10:04:35;;;;;;;4.78;2.13;;;;;;;21.89;37.61;102978.47;5032607;28;20053;-68
2022/01/15 10:07:22;;;;;;;3.75;2.40;;;;;;;21.86;37.65;102978.75;5029630;28;21169;-68
2022/01/15 10:09:49;;;;;;;3.15;2.35;;;;;;;21.81;37.65;102974.84;5029434;28;20391;-68
2022/01/15 10:12:29;;;;;;;3.83;2.20;;;;;;;21.79;37.77;102972.34;5029854;28;20443;-68
2022/01/15 10:14:59;;;;;;;;;;;;;;;21.78;37.63;102968.03;5036583;28;20034;-68
2022/01/15 10:17:25;;;;;;;;;;;;;;;21.79;37.72;102966.22;5030408;28;19928;-68
2022/01/15 10:19:53;;;;;;;2.63;2.22;;;;;;;21.83;37.75;102968.44;5033380;28;20438;-68
2022/01/15 10:22:23;;;;;;;3.53;2.25;;;;;;;21.88;37.42;102968.84;5028866;28;20036;-68
2022/01/15 10:24:53;;;;;;;4.15;2.22;;;;;;;21.97;37.30;102973.31;5034898;28;20032;-68
2022/01/15 10:27:26;;;;;;;4.00;2.15;;;;;;;22.07;36.95;102970.66;5032115;28;20526;-68
2022/01/15 10:29:53;;;;;;;4.78;2.28;;;;;;;22.13;37.08;102963.94;5035866;28;20091;-67
2022/01/15 10:32:19;;;;;;;2.85;2.15;;;;;;;22.20;37.09;102963.22;5034196;28;20927;-68
2022/01/15 10:34:45;;;;;;;3.38;2.08;;;;;;;22.22;36.78;102963.06;5035173;28;20037;-68
2022/01/15 10:37:15;;;;;;;2.72;2.20;;;;;;;22.19;36.82;102955.41;5029437;28;20282;-67
2022/01/15 10:39:54;;;;;;;3.85;2.58;;;;;;;22.15;36.70;102944.25;5031561;28;20512;-67
2022/01/15 10:42:23;;;;;;;4.03;2.70;;;;;;;22.13;36.67;102959.47;5033949;28;20108;-67
2022/01/15 10:44:59;;;;;;;3.75;2.47;;;;;;;22.07;37.08;102951.25;5033709;28;20116;-65
2022/01/15 10:47:27;;;;;;;3.67;2.53;;;;;;;21.97;37.10;102953.91;5030858;28;20025;-67
2022/01/15 10:49:58;;;;;;;3.30;2.42;;;;;;;21.93;36.97;102948.03;5029578;28;20037;-67
2022/01/15 10:52:26;;;;;;;5.32;2.60;;;;;;;21.94;37.14;102949.72;5033039;28;20138;-67
2022/01/15 10:54:57;;;;;;;3.45;2.50;;;;;;;21.96;36.99;102945.09;5032796;28;20509;-67
2022/01/15 10:57:27;;;;;;;3.78;2.35;;;;;;;21.95;37.05;102930.16;5037145;28;20053;-67
2022/01/15 10:59:58;;;;;;;3.75;2.63;;;;;;;22.07;36.95;102938.81;5035314;28;20041;-67
2022/01/15 11:02:24;;;;;;;4.15;2.58;;;;;;;22.07;36.64;102937.97;5037278;28;20072;-67
2022/01/15 11:04:49;;;;;;;5.53;2.92;;;;;;;22.02;36.71;102931.25;5033114;28;20116;-67
2022/01/15 11:07:17;;;;;;;4.25;2.83;;;;;;;21.98;36.81;102932.53;5036179;28;20052;-67
2022/01/15 11:09:44;;;;;;;4.47;3.08;;;;;;;21.89;37.01;102933.38;5032435;28;20144;-67
2022/01/15 11:12:10;;;;;;;4.13;2.65;;;;;;;21.85;36.87;102924.03;5035851;28;20706;-67
2022/01/15 11:14:37;;;;;;;4.13;3.10;;;;;;;21.80;36.97;102923.63;5036066;28;20049;-67
2022/01/15 11:17:03;;;;;;;4.30;2.80;;;;;;;21.78;37.08;102927.41;5032385;28;20025;-67
2022/01/15 11:19:33;;;;;;;4.45;3.20;;;;;;;21.80;36.84;102922.78;5036629;28;20071;-67
2022/01/15 11:21:59;;;;;;;;;;;;;;;21.84;36.84;102914.41;5034536;28;20395;-68
2022/01/15 11:24:25;;;;;;;3.80;2.70;;;;;;;21.89;36.94;102909.50;5037490;28;19982;-67
2022/01/15 11:26:55;;;;;;;4.43;2.80;;;;;;;21.98;36.57;102924.56;5030786;28;20045;-67
2022/01/15 11:29:21;;;;;;;3.67;2.88;;;;;;;22.08;36.71;102916.59;5030670;28;20109;-67
2022/01/15 11:31:51;;;;;;;4.97;3.05;;;;;;;22.16;36.39;102911.44;5037489;28;20144;-68
2022/01/15 11:34:19;;;;;;;3.55;2.55;;;;;;;22.10;36.27;102906.72;5033592;28;20475;-67
2022/01/15 11:36:46;;;;;;;3.35;2.78;;;;;;;22.09;36.68;102904.19;5038978;28;20044;-67
2022/01/15 11:39:18;;;;;;;4.35;2.83;;;;;;;21.99;36.45;102901.53;5033627;28;20041;-67
2022/01/15 11:41:53;;;;;;;5.78;2.92;;;;;;;21.93;36.85;102899.47;5038779;28;20045;-67
2022/01/15 11:44:28;;;;;;;5.00;2.67;;;;;;;21.87;36.70;102903.50;5038408;28;20041;-68